createdAt,value
2023-03-12T00:02:13.952Z,8.20
2023-03-12T00:04:40.976Z,10.60
2023-03-12T00:07:09.049Z,12.30
2023-03-12T00:09:37.763Z,10.10
2023-03-12T00:12:06.259Z,10.80
2023-03-12T00:14:33.698Z,10.70
2023-03-12T00:17:00.808Z,11.73
2023-03-12T00:19:27.868Z,13.10
2023-03-12T00:21:54.995Z,11.60
2023-03-12T00:24:22.125Z,14.18
2023-03-12T00:26:49.129Z,14.20
2023-03-12T00:29:16.168Z,13.40
2023-03-12T00:31:43.284Z,14.33
2023-03-12T00:34:10.906Z,15.07
2023-03-12T00:36:38.175Z,12.18
2023-03-12T00:39:05.166Z,16.15
2023-03-12T00:41:32.238Z,17.58
2023-03-12T00:43:59.318Z,17.47
2023-03-12T00:46:26.441Z,18.77
2023-03-12T00:48:53.451Z,18.98
2023-03-12T00:51:20.827Z,21.90
2023-03-12T00:53:48.122Z,20.40
2023-03-12T00:56:15.694Z,20.60
2023-03-12T00:58:43.608Z,23.05
2023-03-12T01:01:11.382Z,22.13
2023-03-12T01:03:39.162Z,19.42
2023-03-12T01:06:06.470Z,22.38
2023-03-12T01:08:34.021Z,20.43
2023-03-12T01:11:01.197Z,24.02
2023-03-12T01:13:28.919Z,22.63
2023-03-12T01:15:56.092Z,28.60
2023-03-12T01:18:23.528Z,30.63
2023-03-12T01:20:50.931Z,28.17
2023-03-12T01:23:17.964Z,35.85
2023-03-12T01:25:45.048Z,36.42
2023-03-12T01:28:12.056Z,38.17
2023-03-12T01:30:39.292Z,45.72
2023-03-12T01:33:06.262Z,31.93
2023-03-12T01:35:37.813Z,39.72
2023-03-12T01:38:06.939Z,45.72
2023-03-12T01:40:35.996Z,56.92
2023-03-12T01:43:26.280Z,48.97
2023-03-12T01:46:03.631Z,53.67
2023-03-12T01:48:40.169Z,47.90
2023-03-12T01:51:10.698Z,50.92
2023-03-12T01:53:38.662Z,54.80
2023-03-12T01:56:06.753Z,49.90
2023-03-12T01:58:38.166Z,42.37
2023-03-12T02:01:06.024Z,59.30
2023-03-12T02:03:35.167Z,31.88
2023-03-12T02:06:04.805Z,35.78
2023-03-12T02:08:31.758Z,33.47
2023-03-12T02:10:58.726Z,31.67
2023-03-12T02:13:26.043Z,25.67
2023-03-12T02:15:53.201Z,24.73
2023-03-12T02:18:21.645Z,28.48
2023-03-12T02:21:20.249Z,31.73
2023-03-12T02:23:59.389Z,21.70
2023-03-12T02:26:30.016Z,25.08
2023-03-12T02:29:00.670Z,28.02
2023-03-12T02:31:35.166Z,18.88
2023-03-12T02:34:02.342Z,26.45
2023-03-12T02:36:29.574Z,25.80
2023-03-12T02:38:57.114Z,21.23
2023-03-12T02:41:32.310Z,22.58
2023-03-12T02:44:08.157Z,23.90
2023-03-12T02:46:57.595Z,26.52
2023-03-12T02:49:28.532Z,22.67
2023-03-12T02:51:56.574Z,20.05
2023-03-12T02:54:24.429Z,21.65
2023-03-12T02:56:52.294Z,22.45
2023-03-12T02:59:21.984Z,21.52
2023-03-12T03:01:57.955Z,19.13
2023-03-12T03:04:25.852Z,19.95
2023-03-12T03:06:53.014Z,19.73
2023-03-12T03:09:22.488Z,20.95
2023-03-12T03:11:50.869Z,19.52
2023-03-12T03:14:18.752Z,19.20
2023-03-12T03:16:49.001Z,17.90
2023-03-12T03:19:16.294Z,18.30
2023-03-12T03:21:43.974Z,15.70
2023-03-12T03:24:11.474Z,17.42
2023-03-12T03:26:38.670Z,19.43
2023-03-12T03:29:05.742Z,16.77
2023-03-12T03:31:32.878Z,17.90
2023-03-12T03:34:00.005Z,19.50
2023-03-12T03:36:27.341Z,16.05
2023-03-12T03:39:01.342Z,19.00
2023-03-12T03:41:33.071Z,18.83
2023-03-12T03:44:00.465Z,17.48
2023-03-12T03:46:30.053Z,17.33
2023-03-12T03:49:04.110Z,20.00
2023-03-12T03:51:33.187Z,22.43
2023-03-12T03:54:05.333Z,20.80
2023-03-12T03:56:32.675Z,20.63
2023-03-12T03:59:02.125Z,24.05
2023-03-12T04:01:31.560Z,22.33
2023-03-12T04:04:00.480Z,22.03
2023-03-12T04:06:29.945Z,20.45
2023-03-12T04:08:58.464Z,22.00
2023-03-12T04:11:26.793Z,22.17
2023-03-12T04:13:55.520Z,17.75
2023-03-12T04:16:25.855Z,23.63
2023-03-12T04:18:54.737Z,22.20
2023-03-12T04:21:23.030Z,23.30
2023-03-12T04:23:51.359Z,20.90
2023-03-12T04:26:23.497Z,26.45
2023-03-12T04:28:50.611Z,20.60
2023-03-12T04:31:17.986Z,25.48
2023-03-12T04:33:50.194Z,23.33
2023-03-12T04:36:18.610Z,21.38
2023-03-12T04:38:48.465Z,19.88
2023-03-12T04:41:18.436Z,21.90
2023-03-12T04:43:53.341Z,18.73
2023-03-12T04:46:22.207Z,23.42
2023-03-12T04:48:49.406Z,19.77
2023-03-12T04:51:17.311Z,21.42
2023-03-12T04:53:44.539Z,23.03
2023-03-12T04:56:13.478Z,22.23
2023-03-12T04:58:41.825Z,20.52
2023-03-12T05:01:24.420Z,21.40
2023-03-12T05:03:52.389Z,22.65
2023-03-12T05:06:19.970Z,20.13
2023-03-12T05:08:48.083Z,22.77
2023-03-12T05:11:16.245Z,21.23
2023-03-12T05:13:43.722Z,22.23
2023-03-12T05:16:12.244Z,25.33
2023-03-12T05:18:39.357Z,19.73
2023-03-12T05:21:09.170Z,23.70
2023-03-12T05:23:36.911Z,20.40
2023-03-12T05:26:04.066Z,19.02
2023-03-12T05:28:31.053Z,20.73
2023-03-12T05:31:01.924Z,19.43
2023-03-12T05:33:30.647Z,21.08
2023-03-12T05:36:00.873Z,23.05
2023-03-12T05:38:29.356Z,20.60
2023-03-12T05:40:59.328Z,19.25
2023-03-12T05:43:29.772Z,22.97
2023-03-12T05:46:02.184Z,19.60
2023-03-12T05:48:30.307Z,28.88
2023-03-12T05:50:58.095Z,17.35
2023-03-12T05:53:25.437Z,23.98
2023-03-12T05:55:53.776Z,27.47
2023-03-12T05:58:20.999Z,23.27
2023-03-12T06:00:48.436Z,27.98
2023-03-12T06:03:15.935Z,22.13
2023-03-12T06:05:44.637Z,26.80
2023-03-12T06:08:11.855Z,29.40
2023-03-12T06:10:39.763Z,27.08
2023-03-12T06:13:08.836Z,26.10
2023-03-12T06:15:36.068Z,26.90
2023-03-12T06:18:05.470Z,31.77
2023-03-12T06:20:35.820Z,28.17
2023-03-12T06:23:03.021Z,31.50
2023-03-12T06:25:32.342Z,29.95
2023-03-12T06:27:59.491Z,24.05
2023-03-12T06:30:27.746Z,26.45
2023-03-12T06:32:55.283Z,23.73
2023-03-12T06:35:22.393Z,30.60
2023-03-12T06:37:49.481Z,32.25
2023-03-12T06:40:16.642Z,30.02
2023-03-12T06:42:43.584Z,32.95
2023-03-12T06:45:11.001Z,32.50
2023-03-12T06:47:38.016Z,30.58
2023-03-12T06:50:05.612Z,33.42
2023-03-12T06:52:33.246Z,38.25
2023-03-12T06:55:00.309Z,38.25
2023-03-12T06:57:27.335Z,31.83
2023-03-12T06:59:54.278Z,32.10
2023-03-12T07:02:21.345Z,52.63
2023-03-12T07:04:48.432Z,33.72
2023-03-12T07:07:17.139Z,31.25
2023-03-12T07:09:44.284Z,40.17
2023-03-12T07:12:11.399Z,36.75
2023-03-12T07:14:38.368Z,33.80
2023-03-12T07:17:05.588Z,30.35
2023-03-12T07:19:32.641Z,35.10
2023-03-12T07:21:59.791Z,33.47
2023-03-12T07:24:26.799Z,34.88
2023-03-12T07:26:53.758Z,31.35
2023-03-12T07:29:20.778Z,30.65
2023-03-12T07:31:47.865Z,34.70
2023-03-12T07:34:15.275Z,29.60
2023-03-12T07:36:42.478Z,31.00
2023-03-12T07:39:09.588Z,30.85
2023-03-12T07:41:37.585Z,30.50
2023-03-12T07:44:05.593Z,31.38
2023-03-12T07:46:32.975Z,29.73
2023-03-12T07:49:00.023Z,28.90
2023-03-12T07:51:27.481Z,25.55
2023-03-12T07:53:54.455Z,28.90
2023-03-12T07:56:21.635Z,22.20
2023-03-12T07:58:48.888Z,21.63
2023-03-12T08:01:16.129Z,27.02
2023-03-12T08:03:43.529Z,27.15
2023-03-12T08:06:11.014Z,21.95
2023-03-12T08:08:41.854Z,21.67
2023-03-12T08:11:09.623Z,21.87
2023-03-12T08:13:36.690Z,24.73
2023-03-12T08:16:03.870Z,23.80
2023-03-12T08:18:30.951Z,26.33
2023-03-12T08:20:57.965Z,25.90
2023-03-12T08:23:25.216Z,29.50
2023-03-12T08:25:52.691Z,24.17
2023-03-12T08:28:21.393Z,23.30
2023-03-12T08:30:54.275Z,23.70
2023-03-12T08:33:22.553Z,23.75
2023-03-12T08:35:49.992Z,20.40
2023-03-12T08:38:17.513Z,22.15
2023-03-12T08:40:45.023Z,17.05
2023-03-12T08:43:12.034Z,18.80
2023-03-12T08:45:39.210Z,25.63
2023-03-12T08:48:07.366Z,18.90
2023-03-12T08:50:34.529Z,21.77
2023-03-12T08:53:01.692Z,20.23
2023-03-12T08:55:28.741Z,19.08
2023-03-12T08:57:56.573Z,20.85
2023-03-12T09:00:25.229Z,16.73
2023-03-12T09:02:54.154Z,19.88
2023-03-12T09:05:21.372Z,20.38
2023-03-12T09:07:50.135Z,21.33
2023-03-12T09:10:17.790Z,16.13
2023-03-12T09:12:45.339Z,17.13
2023-03-12T09:15:12.429Z,13.65
2023-03-12T09:17:40.088Z,19.02
2023-03-12T09:20:08.999Z,19.65
2023-03-12T09:22:37.399Z,18.85
2023-03-12T09:25:05.779Z,21.20
2023-03-12T09:27:39.943Z,22.17
2023-03-12T09:30:08.616Z,17.48
2023-03-12T09:32:35.690Z,15.80
2023-03-12T09:35:03.343Z,14.18
2023-03-12T09:37:32.478Z,19.10
2023-03-12T09:40:00.197Z,17.92
2023-03-12T09:42:50.472Z,14.07
2023-03-12T09:45:22.825Z,17.88
2023-03-12T09:47:53.457Z,20.65
2023-03-12T09:50:26.320Z,21.77
2023-03-12T09:53:05.258Z,24.38
2023-03-12T09:55:41.128Z,29.23
2023-03-12T09:58:22.684Z,23.83
2023-03-12T10:00:49.710Z,17.90
2023-03-12T10:03:54.964Z,14.53
2023-03-12T10:06:25.061Z,9.98
2023-03-12T10:09:07.059Z,10.15
2023-03-12T10:11:57.761Z,9.07
2023-03-12T10:14:52.029Z,10.98
2023-03-12T10:17:21.954Z,9.57
2023-03-12T10:19:57.789Z,10.25
2023-03-12T10:23:12.194Z,11.13
2023-03-12T10:25:57.383Z,10.45
2023-03-12T10:28:49.319Z,7.75
2023-03-12T10:31:21.841Z,10.77
2023-03-12T10:33:56.170Z,8.65
2023-03-12T10:36:28.813Z,10.65
2023-03-12T10:38:56.135Z,9.95
2023-03-12T10:41:33.425Z,9.82
2023-03-12T10:44:07.852Z,11.17
2023-03-12T10:46:37.879Z,9.70
2023-03-12T10:49:24.127Z,10.95
2023-03-12T10:52:06.341Z,11.13
2023-03-12T10:54:33.306Z,9.35
2023-03-12T10:57:01.812Z,9.77
2023-03-12T10:59:37.491Z,8.93
2023-03-12T11:02:24.437Z,10.15
2023-03-12T11:04:52.705Z,11.20
2023-03-12T11:07:28.132Z,9.77
2023-03-12T11:10:07.381Z,9.77
2023-03-12T11:12:39.964Z,11.55
2023-03-12T11:15:19.018Z,10.02
2023-03-12T11:17:46.417Z,12.43
2023-03-12T11:20:22.452Z,9.70
2023-03-12T11:22:51.496Z,9.13
2023-03-12T11:25:28.648Z,8.95
2023-03-12T11:27:59.901Z,9.45
2023-03-12T11:30:36.862Z,11.02
2023-03-12T11:33:04.400Z,8.18
2023-03-12T11:36:03.924Z,8.43
2023-03-12T11:39:00.583Z,9.82
2023-03-12T11:41:51.292Z,9.85
2023-03-12T11:44:33.357Z,8.63
2023-03-12T11:47:16.828Z,3.70
2023-03-12T11:50:17.865Z,4.13
2023-03-12T11:53:12.181Z,4.93
2023-03-12T11:55:55.151Z,4.85
2023-03-12T11:58:59.583Z,4.63
2023-03-12T12:01:26.640Z,3.95
2023-03-12T12:04:13.471Z,3.20
2023-03-12T12:06:57.964Z,4.22
2023-03-12T12:09:32.410Z,2.85
2023-03-12T12:12:10.721Z,2.40
2023-03-12T12:15:06.781Z,2.53
2023-03-12T12:17:39.880Z,2.80
2023-03-12T12:20:29.093Z,2.58
2023-03-12T12:23:02.236Z,2.60
2023-03-12T12:25:52.825Z,2.55
2023-03-12T12:28:54.274Z,2.30
2023-03-12T12:31:36.513Z,2.10
2023-03-12T12:34:30.423Z,3.65
2023-03-12T12:37:13.117Z,2.65
2023-03-12T12:39:47.035Z,2.50
2023-03-12T12:42:22.076Z,2.45
2023-03-12T12:44:52.660Z,2.87
2023-03-12T12:47:30.292Z,4.28
2023-03-12T12:49:59.984Z,3.00
2023-03-12T12:52:27.659Z,2.67
2023-03-12T12:55:20.266Z,2.53
2023-03-12T12:57:58.143Z,2.30
2023-03-12T13:00:36.464Z,2.65
2023-03-12T13:03:04.469Z,2.30
2023-03-12T13:05:37.524Z,5.13
2023-03-12T13:08:08.809Z,2.42
2023-03-12T13:10:35.788Z,2.50
2023-03-12T13:13:21.170Z,2.83
2023-03-12T13:15:48.515Z,2.60
2023-03-12T13:18:22.220Z,2.63
2023-03-12T13:20:52.014Z,2.83
2023-03-12T13:23:24.788Z,4.03
2023-03-12T13:26:20.559Z,2.60
2023-03-12T13:28:56.724Z,5.85
2023-03-12T13:31:29.823Z,2.53
2023-03-12T13:33:59.110Z,2.45
2023-03-12T13:36:28.845Z,3.47
2023-03-12T13:39:06.609Z,2.65
2023-03-12T13:41:41.093Z,3.13
2023-03-12T13:44:23.279Z,2.97
2023-03-12T13:47:25.145Z,5.88
2023-03-12T13:50:00.177Z,4.07
2023-03-12T13:52:41.220Z,2.92
2023-03-12T13:55:14.602Z,3.53
2023-03-12T13:57:45.566Z,4.85
2023-03-12T14:00:18.677Z,4.05
2023-03-12T14:02:52.140Z,3.07
2023-03-12T14:05:20.560Z,3.70
2023-03-12T14:07:59.856Z,3.45
2023-03-12T14:10:36.907Z,3.28
2023-03-12T14:13:39.877Z,3.67
2023-03-12T14:16:46.048Z,3.50
2023-03-12T14:19:15.068Z,3.08
2023-03-12T14:21:44.426Z,3.03
2023-03-12T14:24:40.694Z,3.08
2023-03-12T14:27:15.497Z,2.95
2023-03-12T14:29:45.583Z,3.37
2023-03-12T14:32:25.637Z,3.33
2023-03-12T14:35:31.280Z,3.70
2023-03-12T14:38:01.351Z,3.13
2023-03-12T14:40:49.517Z,3.03
2023-03-12T14:43:25.363Z,3.07
2023-03-12T14:45:56.700Z,3.40
2023-03-12T14:48:29.058Z,2.80
2023-03-12T14:50:57.753Z,3.63
2023-03-12T14:53:29.673Z,3.10
2023-03-12T14:56:07.063Z,2.93
2023-03-12T14:58:36.859Z,3.95
2023-03-12T15:01:07.204Z,3.50
2023-03-12T15:03:43.636Z,4.03
2023-03-12T15:06:47.237Z,5.05
2023-03-12T15:09:26.055Z,3.50
2023-03-12T15:11:56.783Z,4.97
2023-03-12T15:14:26.244Z,4.50
2023-03-12T15:16:53.890Z,8.63
2023-03-12T15:19:26.649Z,4.20
2023-03-12T15:21:54.122Z,8.60
2023-03-12T15:24:21.633Z,6.03
2023-03-12T15:26:48.770Z,6.13
2023-03-12T15:29:26.941Z,5.85
2023-03-12T15:32:00.853Z,4.85
2023-03-12T15:34:33.279Z,6.20
2023-03-12T15:37:21.256Z,4.82
2023-03-12T15:39:51.646Z,4.85
2023-03-12T15:42:24.215Z,4.97
2023-03-12T15:45:00.106Z,5.50
2023-03-12T15:47:29.308Z,6.20
2023-03-12T15:49:57.704Z,5.65
2023-03-12T15:52:36.096Z,5.38
2023-03-12T15:55:14.658Z,5.57
2023-03-12T15:57:45.698Z,6.43
2023-03-12T16:00:12.700Z,7.40
2023-03-12T16:02:47.216Z,6.00
2023-03-12T16:05:14.432Z,5.70
2023-03-12T16:07:41.436Z,7.78
2023-03-12T16:10:14.061Z,5.28
2023-03-12T16:12:44.554Z,5.17
2023-03-12T16:15:25.840Z,8.25
2023-03-12T16:17:52.842Z,5.03
2023-03-12T16:20:20.171Z,3.90
2023-03-12T16:22:47.293Z,10.98
2023-03-12T16:25:14.377Z,6.53
2023-03-12T16:27:49.722Z,6.25
2023-03-12T16:30:22.975Z,6.68
2023-03-12T16:32:50.274Z,5.32
2023-03-12T16:35:19.249Z,7.13
2023-03-12T16:37:47.237Z,5.40
2023-03-12T16:40:24.035Z,5.10
2023-03-12T16:43:02.705Z,5.55
2023-03-12T16:45:30.994Z,6.78
2023-03-12T16:48:03.578Z,5.60
2023-03-12T16:50:31.084Z,6.33
2023-03-12T16:52:58.990Z,7.60
2023-03-12T16:55:29.008Z,6.93
2023-03-12T16:57:59.337Z,8.02
2023-03-12T17:00:30.500Z,7.00
2023-03-12T17:02:59.115Z,8.20
2023-03-12T17:05:28.487Z,6.70
2023-03-12T17:07:58.357Z,6.95
2023-03-12T17:10:26.062Z,5.75
2023-03-12T17:12:54.021Z,6.68
2023-03-12T17:15:23.828Z,6.50
2023-03-12T17:17:51.006Z,8.30
2023-03-12T17:20:21.073Z,6.72
2023-03-12T17:22:48.333Z,6.47
2023-03-12T17:25:29.155Z,6.20
2023-03-12T17:27:57.439Z,6.73
2023-03-12T17:30:26.171Z,5.85
2023-03-12T17:32:54.442Z,9.55
2023-03-12T17:35:21.536Z,5.65
2023-03-12T17:37:48.663Z,8.07
2023-03-12T17:40:16.152Z,6.00
2023-03-12T17:42:43.296Z,5.78
2023-03-12T17:45:11.017Z,7.97
2023-03-12T17:47:38.963Z,7.95
2023-03-12T17:50:07.874Z,6.95
2023-03-12T17:52:35.120Z,7.57
2023-03-12T17:55:03.467Z,6.15
2023-03-12T17:57:30.903Z,6.13
2023-03-12T17:59:58.064Z,7.43
2023-03-12T18:02:25.166Z,11.18
2023-03-12T18:04:52.249Z,7.03
2023-03-12T18:07:19.331Z,6.00
2023-03-12T18:09:46.311Z,6.18
2023-03-12T18:12:13.357Z,5.63
2023-03-12T18:14:40.324Z,7.43
2023-03-12T18:17:07.402Z,6.33
2023-03-12T18:19:35.627Z,5.80
2023-03-12T18:22:02.872Z,6.10
2023-03-12T18:24:30.204Z,5.32
2023-03-12T18:26:59.332Z,4.53
2023-03-12T18:29:26.822Z,6.17
2023-03-12T18:31:53.990Z,5.53
2023-03-12T18:34:21.161Z,6.13
2023-03-12T18:36:48.257Z,4.50
2023-03-12T18:39:15.340Z,4.75
2023-03-12T18:41:42.447Z,4.47
2023-03-12T18:44:09.485Z,4.03
2023-03-12T18:46:36.616Z,4.03
2023-03-12T18:49:08.307Z,4.30
2023-03-12T18:51:35.928Z,5.60
2023-03-12T18:54:03.090Z,4.83
2023-03-12T18:56:30.192Z,6.18
2023-03-12T18:58:57.207Z,4.57
2023-03-12T19:01:24.513Z,4.50
2023-03-12T19:03:52.322Z,5.93
2023-03-12T19:06:19.394Z,3.83
2023-03-12T19:08:46.428Z,4.47
2023-03-12T19:11:15.838Z,4.55
2023-03-12T19:13:43.534Z,4.05
2023-03-12T19:16:12.900Z,7.10
2023-03-12T19:18:40.150Z,4.57
2023-03-12T19:21:08.523Z,4.22
2023-03-12T19:23:36.009Z,4.88
2023-03-12T19:26:03.770Z,4.35
2023-03-12T19:28:31.342Z,4.78
2023-03-12T19:31:07.030Z,4.83
2023-03-12T19:33:34.424Z,6.05
2023-03-12T19:36:02.007Z,4.90
2023-03-12T19:38:29.416Z,4.00
2023-03-12T19:40:58.217Z,4.57
2023-03-12T19:43:26.028Z,4.00
2023-03-12T19:45:54.811Z,3.78
2023-03-12T19:48:22.832Z,3.55
2023-03-12T19:50:51.608Z,4.28
2023-03-12T19:53:19.825Z,5.30
2023-03-12T19:55:48.511Z,4.60
2023-03-12T19:58:16.648Z,4.60
2023-03-12T20:00:43.841Z,4.45
2023-03-12T20:03:10.990Z,3.67
2023-03-12T20:05:38.492Z,5.53
2023-03-12T20:08:05.688Z,3.10
2023-03-12T20:10:32.926Z,5.20
2023-03-12T20:13:00.008Z,3.90
2023-03-12T20:15:27.014Z,4.72
2023-03-12T20:17:54.928Z,3.72
2023-03-12T20:20:21.891Z,4.57
2023-03-12T20:22:49.073Z,3.83
2023-03-12T20:25:16.128Z,4.00
2023-03-12T20:27:43.805Z,3.95
2023-03-12T20:30:11.403Z,14.50
2023-03-12T20:32:38.483Z,11.40
2023-03-12T20:35:06.117Z,5.43
2023-03-12T20:37:33.082Z,4.45
2023-03-12T20:40:00.138Z,5.03
2023-03-12T20:42:27.302Z,4.35
2023-03-12T20:44:54.334Z,3.40
2023-03-12T20:47:22.504Z,5.03
2023-03-12T20:49:49.512Z,5.40
2023-03-12T20:52:16.598Z,5.03
2023-03-12T20:54:43.698Z,4.32
2023-03-12T20:57:10.764Z,6.67
2023-03-12T20:59:37.780Z,4.07
2023-03-12T21:02:04.835Z,5.55
2023-03-12T21:04:31.930Z,4.65
2023-03-12T21:06:59.013Z,3.88
2023-03-12T21:09:26.069Z,4.30
2023-03-12T21:11:53.179Z,6.72
2023-03-12T21:14:20.229Z,4.68
2023-03-12T21:16:47.361Z,4.50
2023-03-12T21:19:14.558Z,4.20
2023-03-12T21:21:41.571Z,4.00
2023-03-12T21:24:08.603Z,6.15
2023-03-12T21:26:35.768Z,4.28
2023-03-12T21:29:03.238Z,5.40
2023-03-12T21:31:30.633Z,4.07
2023-03-12T21:33:58.197Z,4.87
2023-03-12T21:36:26.252Z,4.22
2023-03-12T21:38:53.302Z,3.80
2023-03-12T21:41:20.940Z,3.95
2023-03-12T21:43:48.319Z,4.70
2023-03-12T21:46:24.754Z,5.67
2023-03-12T21:48:52.065Z,4.05
2023-03-12T21:51:19.710Z,3.45
2023-03-12T21:53:46.750Z,3.65
2023-03-12T21:56:13.742Z,4.80
2023-03-12T21:58:41.163Z,4.60
2023-03-12T22:01:17.352Z,4.63
2023-03-12T22:03:45.921Z,3.45
2023-03-12T22:06:14.752Z,3.97
2023-03-12T22:08:43.016Z,4.13
2023-03-12T22:11:10.909Z,5.40
2023-03-12T22:13:38.236Z,4.50
2023-03-12T22:16:08.359Z,4.30
2023-03-12T22:18:41.141Z,4.28
2023-03-12T22:21:09.170Z,4.28
2023-03-12T22:23:36.956Z,4.80
2023-03-12T22:26:06.259Z,4.82
2023-03-12T22:28:34.115Z,5.97
2023-03-12T22:31:03.848Z,4.63
2023-03-12T22:33:31.212Z,5.53
2023-03-12T22:35:58.676Z,3.53
2023-03-12T22:38:26.113Z,3.70
2023-03-12T22:40:55.610Z,4.70
2023-03-12T22:43:24.983Z,4.93
2023-03-12T22:45:55.165Z,5.60
2023-03-12T22:48:22.153Z,5.07
2023-03-12T22:50:55.627Z,3.65
2023-03-12T22:53:23.288Z,4.05
2023-03-12T22:55:58.805Z,4.50
2023-03-12T22:58:26.628Z,3.95
2023-03-12T23:01:23.545Z,3.73
2023-03-12T23:03:51.007Z,3.80
2023-03-12T23:06:32.760Z,3.80
2023-03-12T23:08:59.962Z,3.60
2023-03-12T23:11:28.225Z,3.17
2023-03-12T23:13:55.786Z,5.67
2023-03-12T23:16:25.593Z,4.07
2023-03-12T23:18:52.924Z,4.07
2023-03-12T23:21:22.301Z,4.05
2023-03-12T23:23:50.816Z,4.28
2023-03-12T23:26:20.943Z,4.07
2023-03-12T23:28:48.511Z,4.22
2023-03-12T23:31:16.475Z,3.47
2023-03-12T23:33:43.963Z,4.22
2023-03-12T23:36:16.785Z,3.67
2023-03-12T23:38:44.889Z,4.17
2023-03-12T23:41:15.093Z,4.13
2023-03-12T23:43:42.187Z,5.60
2023-03-12T23:46:10.708Z,4.30
2023-03-12T23:48:39.049Z,3.50
2023-03-12T23:51:08.944Z,4.60
2023-03-12T23:53:37.326Z,3.80
2023-03-12T23:56:07.055Z,3.40
2023-03-12T23:58:34.201Z,4.25
